sensor_id;sensor_type;location;lat;lon;timestamp;temperature;humidity
12761;DHT22;6444;49.742;6.114;2022-07-23T00:01:50;22.10;99.90
12761;DHT22;6444;49.742;6.114;2022-07-23T00:04:17;21.90;99.90
12761;DHT22;6444;49.742;6.114;2022-07-23T00:06:44;22.10;99.90
12761;DHT22;6444;49.742;6.114;2022-07-23T00:09:10;22.40;99.90
12761;DHT22;6444;49.742;6.114;2022-07-23T00:11:37;22.80;99.90
12761;DHT22;6444;49.742;6.114;2022-07-23T00:14:04;23.10;99.90
12761;DHT22;6444;49.742;6.114;2022-07-23T00:16:30;23.30;99.90
12761;DHT22;6444;49.742;6.114;2022-07-23T00:18:58;23.40;99.90
12761;DHT22;6444;49.742;6.114;2022-07-23T00:21:24;23.30;99.90
12761;DHT22;6444;49.742;6.114;2022-07-23T00:23:51;23.40;99.90
12761;DHT22;6444;49.742;6.114;2022-07-23T00:26:18;23.30;99.90
12761;DHT22;6444;49.742;6.114;2022-07-23T00:28:44;23.00;99.90
12761;DHT22;6444;49.742;6.114;2022-07-23T00:31:11;22.30;99.90
12761;DHT22;6444;49.742;6.114;2022-07-23T00:33:37;22.10;99.90
12761;DHT22;6444;49.742;6.114;2022-07-23T00:36:04;21.90;99.90
12761;DHT22;6444;49.742;6.114;2022-07-23T00:38:31;21.70;99.90
12761;DHT22;6444;49.742;6.114;2022-07-23T00:40:57;21.80;99.90
12761;DHT22;6444;49.742;6.114;2022-07-23T00:43:24;21.70;99.90
12761;DHT22;6444;49.742;6.114;2022-07-23T00:45:51;22.00;99.90
12761;DHT22;6444;49.742;6.114;2022-07-23T00:48:17;22.20;99.90
12761;DHT22;6444;49.742;6.114;2022-07-23T00:50:44;22.20;99.90
12761;DHT22;6444;49.742;6.114;2022-07-23T00:53:11;22.40;99.90
12761;DHT22;6444;49.742;6.114;2022-07-23T00:55:37;22.60;99.90
12761;DHT22;6444;49.742;6.114;2022-07-23T00:58:04;22.50;99.90
12761;DHT22;6444;49.742;6.114;2022-07-23T01:00:31;22.50;99.90
12761;DHT22;6444;49.742;6.114;2022-07-23T01:02:58;22.40;99.90
12761;DHT22;6444;49.742;6.114;2022-07-23T01:05:25;22.40;99.90
12761;DHT22;6444;49.742;6.114;2022-07-23T01:07:51;22.00;99.90
12761;DHT22;6444;49.742;6.114;2022-07-23T01:10:18;22.10;99.90
12761;DHT22;6444;49.742;6.114;2022-07-23T01:13:03;22.30;99.90
12761;DHT22;6444;49.742;6.114;2022-07-23T01:15:30;22.20;99.90
12761;DHT22;6444;49.742;6.114;2022-07-23T01:17:56;22.10;99.90
12761;DHT22;6444;49.742;6.114;2022-07-23T01:20:23;21.50;99.90
12761;DHT22;6444;49.742;6.114;2022-07-23T01:22:50;21.30;99.90
12761;DHT22;6444;49.742;6.114;2022-07-23T01:25:19;21.10;99.90
12761;DHT22;6444;49.742;6.114;2022-07-23T01:27:46;21.50;99.90
12761;DHT22;6444;49.742;6.114;2022-07-23T01:30:12;21.70;99.90
12761;DHT22;6444;49.742;6.114;2022-07-23T01:32:40;22.10;99.90
12761;DHT22;6444;49.742;6.114;2022-07-23T01:35:07;22.00;99.90
12761;DHT22;6444;49.742;6.114;2022-07-23T01:37:33;22.20;99.90
12761;DHT22;6444;49.742;6.114;2022-07-23T01:40:00;21.90;99.90
12761;DHT22;6444;49.742;6.114;2022-07-23T01:42:26;21.80;99.90
12761;DHT22;6444;49.742;6.114;2022-07-23T01:44:53;21.40;99.90
12761;DHT22;6444;49.742;6.114;2022-07-23T01:47:20;21.10;99.90
12761;DHT22;6444;49.742;6.114;2022-07-23T01:49:46;20.90;99.90
12761;DHT22;6444;49.742;6.114;2022-07-23T01:52:13;21.00;99.90
12761;DHT22;6444;49.742;6.114;2022-07-23T01:54:40;21.30;99.90
12761;DHT22;6444;49.742;6.114;2022-07-23T01:57:06;21.40;99.90
12761;DHT22;6444;49.742;6.114;2022-07-23T01:59:33;21.50;99.90
12761;DHT22;6444;49.742;6.114;2022-07-23T02:01:59;21.60;99.90
12761;DHT22;6444;49.742;6.114;2022-07-23T02:04:26;21.70;99.90
12761;DHT22;6444;49.742;6.114;2022-07-23T02:06:53;21.70;99.90
12761;DHT22;6444;49.742;6.114;2022-07-23T02:09:20;21.70;99.90
12761;DHT22;6444;49.742;6.114;2022-07-23T02:11:47;21.10;99.90
12761;DHT22;6444;49.742;6.114;2022-07-23T02:14:13;20.60;99.90
12761;DHT22;6444;49.742;6.114;2022-07-23T02:16:40;20.90;99.90
12761;DHT22;6444;49.742;6.114;2022-07-23T02:19:07;21.10;99.90
12761;DHT22;6444;49.742;6.114;2022-07-23T02:21:33;21.10;99.90
12761;DHT22;6444;49.742;6.114;2022-07-23T02:24:00;21.10;99.90
12761;DHT22;6444;49.742;6.114;2022-07-23T02:26:27;21.30;99.90
12761;DHT22;6444;49.742;6.114;2022-07-23T02:28:53;21.20;99.90
12761;DHT22;6444;49.742;6.114;2022-07-23T02:31:21;21.00;99.90
12761;DHT22;6444;49.742;6.114;2022-07-23T02:33:47;20.90;99.90
12761;DHT22;6444;49.742;6.114;2022-07-23T02:36:14;20.90;99.90
12761;DHT22;6444;49.742;6.114;2022-07-23T02:38:41;20.40;99.90
12761;DHT22;6444;49.742;6.114;2022-07-23T02:41:07;20.50;99.90
12761;DHT22;6444;49.742;6.114;2022-07-23T02:43:34;19.90;99.90
12761;DHT22;6444;49.742;6.114;2022-07-23T02:46:00;19.70;99.90
12761;DHT22;6444;49.742;6.114;2022-07-23T02:48:27;19.60;99.90
12761;DHT22;6444;49.742;6.114;2022-07-23T02:50:54;19.80;99.90
12761;DHT22;6444;49.742;6.114;2022-07-23T02:53:20;19.90;99.90
12761;DHT22;6444;49.742;6.114;2022-07-23T02:55:48;20.20;99.90
12761;DHT22;6444;49.742;6.114;2022-07-23T02:58:14;20.20;99.90
12761;DHT22;6444;49.742;6.114;2022-07-23T03:00:41;20.30;99.90
12761;DHT22;6444;49.742;6.114;2022-07-23T03:03:08;19.80;99.90
12761;DHT22;6444;49.742;6.114;2022-07-23T03:05:34;19.80;99.90
12761;DHT22;6444;49.742;6.114;2022-07-23T03:08:01;19.90;99.90
12761;DHT22;6444;49.742;6.114;2022-07-23T03:10:27;20.00;99.90
12761;DHT22;6444;49.742;6.114;2022-07-23T03:12:57;19.80;99.90
12761;DHT22;6444;49.742;6.114;2022-07-23T03:15:24;19.70;99.90
12761;DHT22;6444;49.742;6.114;2022-07-23T03:17:51;19.60;99.90
12761;DHT22;6444;49.742;6.114;2022-07-23T03:20:18;19.70;99.90
12761;DHT22;6444;49.742;6.114;2022-07-23T03:22:44;19.60;99.90
12761;DHT22;6444;49.742;6.114;2022-07-23T03:25:11;19.50;99.90
12761;DHT22;6444;49.742;6.114;2022-07-23T03:27:38;19.10;99.90
12761;DHT22;6444;49.742;6.114;2022-07-23T03:30:05;19.10;99.90
12761;DHT22;6444;49.742;6.114;2022-07-23T03:32:32;19.10;99.90
12761;DHT22;6444;49.742;6.114;2022-07-23T03:34:58;19.20;99.90
12761;DHT22;6444;49.742;6.114;2022-07-23T03:37:25;19.20;99.90
12761;DHT22;6444;49.742;6.114;2022-07-23T03:39:52;18.90;99.90
12761;DHT22;6444;49.742;6.114;2022-07-23T03:42:18;19.20;99.90
12761;DHT22;6444;49.742;6.114;2022-07-23T03:44:45;19.40;99.90
12761;DHT22;6444;49.742;6.114;2022-07-23T03:47:12;19.20;99.90
12761;DHT22;6444;49.742;6.114;2022-07-23T03:49:38;19.10;99.90
12761;DHT22;6444;49.742;6.114;2022-07-23T03:52:05;19.10;99.90
12761;DHT22;6444;49.742;6.114;2022-07-23T03:54:32;19.10;99.90
12761;DHT22;6444;49.742;6.114;2022-07-23T03:56:59;19.40;99.90
12761;DHT22;6444;49.742;6.114;2022-07-23T03:59:26;19.30;99.90
12761;DHT22;6444;49.742;6.114;2022-07-23T04:01:52;19.50;99.90
12761;DHT22;6444;49.742;6.114;2022-07-23T04:04:19;19.20;99.90
12761;DHT22;6444;49.742;6.114;2022-07-23T04:06:45;19.20;99.90
12761;DHT22;6444;49.742;6.114;2022-07-23T04:09:12;19.40;99.90
12761;DHT22;6444;49.742;6.114;2022-07-23T04:11:39;19.50;99.90
12761;DHT22;6444;49.742;6.114;2022-07-23T04:14:05;19.70;99.90
12761;DHT22;6444;49.742;6.114;2022-07-23T04:16:32;19.10;99.90
12761;DHT22;6444;49.742;6.114;2022-07-23T04:18:59;19.20;99.90
12761;DHT22;6444;49.742;6.114;2022-07-23T04:21:25;19.40;99.90
12761;DHT22;6444;49.742;6.114;2022-07-23T04:23:53;19.50;99.90
12761;DHT22;6444;49.742;6.114;2022-07-23T04:26:19;19.50;99.90
12761;DHT22;6444;49.742;6.114;2022-07-23T04:28:46;19.40;99.90
12761;DHT22;6444;49.742;6.114;2022-07-23T04:31:13;18.90;99.90
12761;DHT22;6444;49.742;6.114;2022-07-23T04:33:39;18.40;99.90
12761;DHT22;6444;49.742;6.114;2022-07-23T04:36:06;18.00;99.90
12761;DHT22;6444;49.742;6.114;2022-07-23T04:38:33;18.30;99.90
12761;DHT22;6444;49.742;6.114;2022-07-23T04:41:00;19.50;99.90
12761;DHT22;6444;49.742;6.114;2022-07-23T04:43:27;19.40;99.90
12761;DHT22;6444;49.742;6.114;2022-07-23T04:45:53;19.90;99.90
12761;DHT22;6444;49.742;6.114;2022-07-23T04:48:20;20.30;99.90
12761;DHT22;6444;49.742;6.114;2022-07-23T04:50:46;20.50;99.90
12761;DHT22;6444;49.742;6.114;2022-07-23T04:53:13;20.60;99.90
12761;DHT22;6444;49.742;6.114;2022-07-23T04:55:40;20.50;99.90
12761;DHT22;6444;49.742;6.114;2022-07-23T04:58:06;20.60;99.90
12761;DHT22;6444;49.742;6.114;2022-07-23T05:00:33;20.80;99.90
12761;DHT22;6444;49.742;6.114;2022-07-23T05:03:00;21.00;99.90
12761;DHT22;6444;49.742;6.114;2022-07-23T05:05:26;21.10;99.90
12761;DHT22;6444;49.742;6.114;2022-07-23T05:07:53;21.30;99.90
12761;DHT22;6444;49.742;6.114;2022-07-23T05:10:20;21.80;99.90
12761;DHT22;6444;49.742;6.114;2022-07-23T05:12:46;22.10;99.90
12761;DHT22;6444;49.742;6.114;2022-07-23T05:15:13;22.50;99.90
12761;DHT22;6444;49.742;6.114;2022-07-23T05:17:39;22.70;99.90
12761;DHT22;6444;49.742;6.114;2022-07-23T05:20:06;23.70;99.90
12761;DHT22;6444;49.742;6.114;2022-07-23T05:22:33;24.70;99.90
12761;DHT22;6444;49.742;6.114;2022-07-23T05:25:00;25.30;99.90
12761;DHT22;6444;49.742;6.114;2022-07-23T05:27:27;25.20;99.90
12761;DHT22;6444;49.742;6.114;2022-07-23T05:29:53;25.50;99.90
12761;DHT22;6444;49.742;6.114;2022-07-23T05:32:20;26.40;99.90
12761;DHT22;6444;49.742;6.114;2022-07-23T05:34:47;27.60;99.90
12761;DHT22;6444;49.742;6.114;2022-07-23T05:37:13;28.00;99.90
12761;DHT22;6444;49.742;6.114;2022-07-23T05:39:40;27.70;99.90
12761;DHT22;6444;49.742;6.114;2022-07-23T05:42:07;28.60;99.90
12761;DHT22;6444;49.742;6.114;2022-07-23T05:44:34;28.50;99.90
12761;DHT22;6444;49.742;6.114;2022-07-23T05:47:01;28.50;99.90
12761;DHT22;6444;49.742;6.114;2022-07-23T05:49:27;28.60;99.90
12761;DHT22;6444;49.742;6.114;2022-07-23T05:51:54;28.60;99.90
12761;DHT22;6444;49.742;6.114;2022-07-23T05:54:20;29.00;99.90
12761;DHT22;6444;49.742;6.114;2022-07-23T05:56:47;29.60;99.90
12761;DHT22;6444;49.742;6.114;2022-07-23T05:59:14;30.30;99.10
12761;DHT22;6444;49.742;6.114;2022-07-23T06:01:41;31.50;96.80
12761;DHT22;6444;49.742;6.114;2022-07-23T06:04:08;31.40;96.60
12761;DHT22;6444;49.742;6.114;2022-07-23T06:06:34;31.70;95.60
12761;DHT22;6444;49.742;6.114;2022-07-23T06:09:01;32.80;94.60
12761;DHT22;6444;49.742;6.114;2022-07-23T06:11:28;33.10;93.40
12761;DHT22;6444;49.742;6.114;2022-07-23T06:13:54;33.10;93.00
12761;DHT22;6444;49.742;6.114;2022-07-23T06:16:21;33.50;92.20
12761;DHT22;6444;49.742;6.114;2022-07-23T06:18:47;34.50;91.20
12761;DHT22;6444;49.742;6.114;2022-07-23T06:21:15;34.90;89.40
12761;DHT22;6444;49.742;6.114;2022-07-23T06:23:41;34.90;89.30
12761;DHT22;6444;49.742;6.114;2022-07-23T06:26:08;35.20;86.60
12761;DHT22;6444;49.742;6.114;2022-07-23T06:28:35;34.40;88.90
12761;DHT22;6444;49.742;6.114;2022-07-23T06:31:01;34.10;88.60
12761;DHT22;6444;49.742;6.114;2022-07-23T06:33:28;33.90;87.60
12761;DHT22;6444;49.742;6.114;2022-07-23T06:35:55;33.40;87.60
12761;DHT22;6444;49.742;6.114;2022-07-23T06:38:21;33.80;89.30
12761;DHT22;6444;49.742;6.114;2022-07-23T06:40:49;35.80;83.40
12761;DHT22;6444;49.742;6.114;2022-07-23T06:43:15;35.80;83.20
12761;DHT22;6444;49.742;6.114;2022-07-23T06:45:42;36.90;80.90
12761;DHT22;6444;49.742;6.114;2022-07-23T06:48:09;35.60;83.10
12761;DHT22;6444;49.742;6.114;2022-07-23T06:50:35;35.40;82.40
12761;DHT22;6444;49.742;6.114;2022-07-23T06:53:02;36.20;81.10
12761;DHT22;6444;49.742;6.114;2022-07-23T06:55:29;36.30;78.50
12761;DHT22;6444;49.742;6.114;2022-07-23T06:57:55;34.90;82.00
12761;DHT22;6444;49.742;6.114;2022-07-23T07:00:22;34.70;82.70
12761;DHT22;6444;49.742;6.114;2022-07-23T07:02:49;35.60;81.00
12761;DHT22;6444;49.742;6.114;2022-07-23T07:05:16;37.80;77.70
12761;DHT22;6444;49.742;6.114;2022-07-23T07:07:43;37.80;77.60
12761;DHT22;6444;49.742;6.114;2022-07-23T07:10:09;38.80;75.00
12761;DHT22;6444;49.742;6.114;2022-07-23T07:12:36;39.10;72.50
12761;DHT22;6444;49.742;6.114;2022-07-23T07:15:02;39.40;71.90
12761;DHT22;6444;49.742;6.114;2022-07-23T07:17:29;39.90;70.30
12761;DHT22;6444;49.742;6.114;2022-07-23T07:19:56;37.80;72.60
12761;DHT22;6444;49.742;6.114;2022-07-23T07:22:22;38.40;73.60
12761;DHT22;6444;49.742;6.114;2022-07-23T07:24:49;39.00;72.60
12761;DHT22;6444;49.742;6.114;2022-07-23T07:27:16;40.20;71.30
12761;DHT22;6444;49.742;6.114;2022-07-23T07:29:42;41.80;68.10
12761;DHT22;6444;49.742;6.114;2022-07-23T07:32:09;43.20;64.90
12761;DHT22;6444;49.742;6.114;2022-07-23T07:34:36;43.60;62.60
12761;DHT22;6444;49.742;6.114;2022-07-23T07:37:02;42.30;63.90
12761;DHT22;6444;49.742;6.114;2022-07-23T07:39:29;41.70;66.00
12761;DHT22;6444;49.742;6.114;2022-07-23T07:41:55;42.60;64.50
12761;DHT22;6444;49.742;6.114;2022-07-23T07:44:23;40.90;64.80
12761;DHT22;6444;49.742;6.114;2022-07-23T07:46:49;40.80;64.70
12761;DHT22;6444;49.742;6.114;2022-07-23T07:49:16;41.60;65.20
12761;DHT22;6444;49.742;6.114;2022-07-23T07:51:43;42.20;63.10
12761;DHT22;6444;49.742;6.114;2022-07-23T07:54:09;42.80;62.30
12761;DHT22;6444;49.742;6.114;2022-07-23T07:56:36;42.20;62.50
12761;DHT22;6444;49.742;6.114;2022-07-23T07:59:03;41.50;63.40
12761;DHT22;6444;49.742;6.114;2022-07-23T08:01:29;41.80;61.60
12761;DHT22;6444;49.742;6.114;2022-07-23T08:03:57;44.10;60.20
12761;DHT22;6444;49.742;6.114;2022-07-23T08:06:23;44.00;60.00
12761;DHT22;6444;49.742;6.114;2022-07-23T08:08:50;44.70;58.60
12761;DHT22;6444;49.742;6.114;2022-07-23T08:11:17;45.10;57.10
12761;DHT22;6444;49.742;6.114;2022-07-23T08:13:43;43.70;57.20
12761;DHT22;6444;49.742;6.114;2022-07-23T08:16:10;42.10;58.80
12761;DHT22;6444;49.742;6.114;2022-07-23T08:18:36;40.60;60.60
12761;DHT22;6444;49.742;6.114;2022-07-23T08:21:03;39.30;64.60
12761;DHT22;6444;49.742;6.114;2022-07-23T08:23:32;37.20;65.50
12761;DHT22;6444;49.742;6.114;2022-07-23T08:25:59;35.00;69.80
12761;DHT22;6444;49.742;6.114;2022-07-23T08:28:26;35.20;70.80
12761;DHT22;6444;49.742;6.114;2022-07-23T08:30:52;37.80;66.90
12761;DHT22;6444;49.742;6.114;2022-07-23T08:33:19;40.00;63.60
12761;DHT22;6444;49.742;6.114;2022-07-23T08:35:49;41.10;62.90
12761;DHT22;6444;49.742;6.114;2022-07-23T08:38:16;42.60;60.70
12761;DHT22;6444;49.742;6.114;2022-07-23T08:40:46;43.50;58.00
12761;DHT22;6444;49.742;6.114;2022-07-23T08:43:15;43.20;57.00
12761;DHT22;6444;49.742;6.114;2022-07-23T08:45:43;40.50;60.80
12761;DHT22;6444;49.742;6.114;2022-07-23T08:48:08;40.70;60.70
12761;DHT22;6444;49.742;6.114;2022-07-23T08:50:35;40.90;58.90
12761;DHT22;6444;49.742;6.114;2022-07-23T08:53:01;39.60;61.60
12761;DHT22;6444;49.742;6.114;2022-07-23T08:55:27;39.50;61.10
12761;DHT22;6444;49.742;6.114;2022-07-23T08:57:54;40.10;60.40
12761;DHT22;6444;49.742;6.114;2022-07-23T09:00:21;41.40;59.10
12761;DHT22;6444;49.742;6.114;2022-07-23T09:02:47;42.30;57.60
12761;DHT22;6444;49.742;6.114;2022-07-23T09:05:14;41.30;57.30
12761;DHT22;6444;49.742;6.114;2022-07-23T09:10:28;39.30;60.50
12761;DHT22;6444;49.742;6.114;2022-07-23T09:12:55;37.80;62.90
12761;DHT22;6444;49.742;6.114;2022-07-23T09:15:21;37.90;61.30
12761;DHT22;6444;49.742;6.114;2022-07-23T09:17:49;36.00;64.20
12761;DHT22;6444;49.742;6.114;2022-07-23T09:20:16;35.90;64.10
12761;DHT22;6444;49.742;6.114;2022-07-23T09:22:46;35.90;65.80
12761;DHT22;6444;49.742;6.114;2022-07-23T09:25:13;37.40;63.70
12761;DHT22;6444;49.742;6.114;2022-07-23T09:27:54;39.20;61.20
12761;DHT22;6444;49.742;6.114;2022-07-23T09:30:21;40.50;58.20
12761;DHT22;6444;49.742;6.114;2022-07-23T09:36:01;38.40;62.60
12761;DHT22;6444;49.742;6.114;2022-07-23T09:38:13;39.80;60.90
12761;DHT22;6444;49.742;6.114;2022-07-23T09:40:39;40.30;58.70
12761;DHT22;6444;49.742;6.114;2022-07-23T09:43:07;39.60;59.80
12761;DHT22;6444;49.742;6.114;2022-07-23T09:45:33;39.50;58.90
12761;DHT22;6444;49.742;6.114;2022-07-23T09:48:16;38.60;62.20
12761;DHT22;6444;49.742;6.114;2022-07-23T09:50:42;39.30;60.70
12761;DHT22;6444;49.742;6.114;2022-07-23T09:53:09;36.80;63.30
12761;DHT22;6444;49.742;6.114;2022-07-23T09:55:36;36.70;62.30
12761;DHT22;6444;49.742;6.114;2022-07-23T09:58:02;36.30;65.10
12761;DHT22;6444;49.742;6.114;2022-07-23T10:00:29;37.40;63.10
12761;DHT22;6444;49.742;6.114;2022-07-23T10:02:55;37.10;62.90
12761;DHT22;6444;49.742;6.114;2022-07-23T10:05:22;37.60;63.20
12761;DHT22;6444;49.742;6.114;2022-07-23T10:07:49;38.00;61.30
12761;DHT22;6444;49.742;6.114;2022-07-23T10:10:15;36.20;63.40
12761;DHT22;6444;49.742;6.114;2022-07-23T10:12:43;36.00;64.50
12761;DHT22;6444;49.742;6.114;2022-07-23T10:15:14;36.30;64.30
12761;DHT22;6444;49.742;6.114;2022-07-23T10:17:41;37.00;64.80
12761;DHT22;6444;49.742;6.114;2022-07-23T10:20:11;39.10;62.90
12761;DHT22;6444;49.742;6.114;2022-07-23T10:22:38;40.30;61.20
12761;DHT22;6444;49.742;6.114;2022-07-23T10:28:12;41.50;59.90
12761;DHT22;6444;49.742;6.114;2022-07-23T10:33:23;38.00;60.90
12761;DHT22;6444;49.742;6.114;2022-07-23T10:35:47;35.30;65.10
12761;DHT22;6444;49.742;6.114;2022-07-23T10:38:13;34.50;70.60
12761;DHT22;6444;49.742;6.114;2022-07-23T10:40:37;36.10;67.80
12761;DHT22;6444;49.742;6.114;2022-07-23T10:43:05;36.70;64.10
12761;DHT22;6444;49.742;6.114;2022-07-23T10:45:32;36.60;63.90
12761;DHT22;6444;49.742;6.114;2022-07-23T10:48:17;37.10;63.00
12761;DHT22;6444;49.742;6.114;2022-07-23T10:50:43;36.90;60.90
12761;DHT22;6444;49.742;6.114;2022-07-23T10:53:13;36.60;62.10
12761;DHT22;6444;49.742;6.114;2022-07-23T10:55:41;36.90;61.20
12761;DHT22;6444;49.742;6.114;2022-07-23T10:58:05;36.90;63.60
12761;DHT22;6444;49.742;6.114;2022-07-23T11:00:32;36.10;62.60
12761;DHT22;6444;49.742;6.114;2022-07-23T11:02:59;34.60;65.70
12761;DHT22;6444;49.742;6.114;2022-07-23T11:05:44;35.10;64.10
12761;DHT22;6444;49.742;6.114;2022-07-23T11:08:11;35.10;64.10
12761;DHT22;6444;49.742;6.114;2022-07-23T11:10:44;34.70;67.00
12761;DHT22;6444;49.742;6.114;2022-07-23T11:24:00;34.80;65.60
12761;DHT22;6444;49.742;6.114;2022-07-23T11:31:59;33.40;66.40
12761;DHT22;6444;49.742;6.114;2022-07-23T11:34:41;33.60;66.90
12761;DHT22;6444;49.742;6.114;2022-07-23T11:37:08;33.40;67.40
12761;DHT22;6444;49.742;6.114;2022-07-23T11:39:34;33.20;67.80
12761;DHT22;6444;49.742;6.114;2022-07-23T11:42:01;33.60;68.30
12761;DHT22;6444;49.742;6.114;2022-07-23T11:44:33;35.20;67.10
12761;DHT22;6444;49.742;6.114;2022-07-23T11:47:00;36.20;67.10
12761;DHT22;6444;49.742;6.114;2022-07-23T11:49:26;37.30;64.40
12761;DHT22;6444;49.742;6.114;2022-07-23T11:52:11;38.60;62.70
12761;DHT22;6444;49.742;6.114;2022-07-23T11:54:51;38.70;60.60
12761;DHT22;6444;49.742;6.114;2022-07-23T11:57:13;38.60;60.50
12761;DHT22;6444;49.742;6.114;2022-07-23T11:59:39;38.30;65.70
12761;DHT22;6444;49.742;6.114;2022-07-23T12:02:06;39.90;59.20
12761;DHT22;6444;49.742;6.114;2022-07-23T12:04:39;40.30;60.70
12761;DHT22;6444;49.742;6.114;2022-07-23T12:07:37;40.70;57.70
12761;DHT22;6444;49.742;6.114;2022-07-23T12:10:10;40.60;57.60
12761;DHT22;6444;49.742;6.114;2022-07-23T12:12:36;39.10;59.30
12761;DHT22;6444;49.742;6.114;2022-07-23T12:15:02;38.30;60.10
12761;DHT22;6444;49.742;6.114;2022-07-23T12:17:29;37.60;59.80
12761;DHT22;6444;49.742;6.114;2022-07-23T12:19:58;34.60;63.30
12761;DHT22;6444;49.742;6.114;2022-07-23T12:22:22;33.20;65.40
12761;DHT22;6444;49.742;6.114;2022-07-23T12:24:53;34.40;68.70
12761;DHT22;6444;49.742;6.114;2022-07-23T12:27:22;34.40;68.60
12761;DHT22;6444;49.742;6.114;2022-07-23T12:29:48;35.70;65.00
12761;DHT22;6444;49.742;6.114;2022-07-23T12:32:27;36.00;63.90
12761;DHT22;6444;49.742;6.114;2022-07-23T12:35:06;36.20;63.40
12761;DHT22;6444;49.742;6.114;2022-07-23T12:37:37;35.10;62.60
12761;DHT22;6444;49.742;6.114;2022-07-23T12:40:21;33.70;64.80
12761;DHT22;6444;49.742;6.114;2022-07-23T12:42:47;31.90;68.70
12761;DHT22;6444;49.742;6.114;2022-07-23T12:45:14;30.80;73.20
12761;DHT22;6444;49.742;6.114;2022-07-23T12:50:31;32.10;68.60
12761;DHT22;6444;49.742;6.114;2022-07-23T12:53:07;32.50;69.20
12761;DHT22;6444;49.742;6.114;2022-07-23T12:55:33;33.10;67.60
12761;DHT22;6444;49.742;6.114;2022-07-23T12:58:12;33.80;67.70
12761;DHT22;6444;49.742;6.114;2022-07-23T13:00:54;34.10;65.60
12761;DHT22;6444;49.742;6.114;2022-07-23T13:03:21;33.10;67.20
12761;DHT22;6444;49.742;6.114;2022-07-23T13:05:47;33.20;67.40
12761;DHT22;6444;49.742;6.114;2022-07-23T13:08:13;33.70;67.60
12761;DHT22;6444;49.742;6.114;2022-07-23T13:10:40;33.80;67.10
12761;DHT22;6444;49.742;6.114;2022-07-23T13:13:13;33.50;66.60
12761;DHT22;6444;49.742;6.114;2022-07-23T13:15:41;32.90;69.30
12761;DHT22;6444;49.742;6.114;2022-07-23T13:18:07;32.90;69.30
12761;DHT22;6444;49.742;6.114;2022-07-23T13:20:34;33.30;69.00
12761;DHT22;6444;49.742;6.114;2022-07-23T13:23:00;33.90;67.20
12761;DHT22;6444;49.742;6.114;2022-07-23T13:25:27;34.50;66.20
12761;DHT22;6444;49.742;6.114;2022-07-23T13:27:53;34.80;65.00
12761;DHT22;6444;49.742;6.114;2022-07-23T13:30:21;32.60;69.00
12761;DHT22;6444;49.742;6.114;2022-07-23T13:32:48;32.50;68.90
12761;DHT22;6444;49.742;6.114;2022-07-23T13:35:14;31.80;70.80
12761;DHT22;6444;49.742;6.114;2022-07-23T13:37:41;31.40;73.20
12761;DHT22;6444;49.742;6.114;2022-07-23T13:40:07;32.20;72.20
12761;DHT22;6444;49.742;6.114;2022-07-23T13:42:35;33.20;70.50
12761;DHT22;6444;49.742;6.114;2022-07-23T13:45:01;33.30;70.00
12761;DHT22;6444;49.742;6.114;2022-07-23T13:47:27;33.80;69.60
12761;DHT22;6444;49.742;6.114;2022-07-23T13:49:54;34.00;67.30
12761;DHT22;6444;49.742;6.114;2022-07-23T13:52:21;33.60;66.90
12761;DHT22;6444;49.742;6.114;2022-07-23T13:54:47;33.00;68.50
12761;DHT22;6444;49.742;6.114;2022-07-23T13:57:14;33.30;68.30
12761;DHT22;6444;49.742;6.114;2022-07-23T13:59:41;33.60;67.80
12761;DHT22;6444;49.742;6.114;2022-07-23T14:02:08;33.50;67.70
12761;DHT22;6444;49.742;6.114;2022-07-23T14:04:35;33.70;67.90
12761;DHT22;6444;49.742;6.114;2022-07-23T14:07:01;33.90;68.50
12761;DHT22;6444;49.742;6.114;2022-07-23T14:09:28;34.10;68.20
12761;DHT22;6444;49.742;6.114;2022-07-23T14:11:54;34.00;67.50
12761;DHT22;6444;49.742;6.114;2022-07-23T14:14:21;33.90;68.40
12761;DHT22;6444;49.742;6.114;2022-07-23T14:16:48;33.70;69.10
12761;DHT22;6444;49.742;6.114;2022-07-23T14:19:15;33.70;69.00
12761;DHT22;6444;49.742;6.114;2022-07-23T14:21:42;33.80;69.90
12761;DHT22;6444;49.742;6.114;2022-07-23T14:24:08;33.60;70.20
12761;DHT22;6444;49.742;6.114;2022-07-23T14:26:36;33.30;69.20
12761;DHT22;6444;49.742;6.114;2022-07-23T14:29:02;33.20;69.10
12761;DHT22;6444;49.742;6.114;2022-07-23T14:31:29;32.80;71.70
12761;DHT22;6444;49.742;6.114;2022-07-23T14:33:56;32.80;71.00
12761;DHT22;6444;49.742;6.114;2022-07-23T14:36:22;32.90;70.40
12761;DHT22;6444;49.742;6.114;2022-07-23T14:38:49;32.90;71.30
12761;DHT22;6444;49.742;6.114;2022-07-23T14:41:15;32.90;72.20
12761;DHT22;6444;49.742;6.114;2022-07-23T14:43:43;33.30;70.80
12761;DHT22;6444;49.742;6.114;2022-07-23T14:46:09;33.30;70.80
12761;DHT22;6444;49.742;6.114;2022-07-23T14:48:36;33.60;69.10
12761;DHT22;6444;49.742;6.114;2022-07-23T14:51:03;33.70;69.30
12761;DHT22;6444;49.742;6.114;2022-07-23T14:53:29;33.80;69.30
12761;DHT22;6444;49.742;6.114;2022-07-23T14:55:57;33.30;68.10
12761;DHT22;6444;49.742;6.114;2022-07-23T14:58:23;33.20;68.00
12761;DHT22;6444;49.742;6.114;2022-07-23T15:00:50;33.40;69.20
12761;DHT22;6444;49.742;6.114;2022-07-23T15:03:17;33.60;69.20
12761;DHT22;6444;49.742;6.114;2022-07-23T15:05:43;32.70;67.60
12761;DHT22;6444;49.742;6.114;2022-07-23T15:08:10;32.50;67.50
12761;DHT22;6444;49.742;6.114;2022-07-23T15:10:38;33.30;67.70
12761;DHT22;6444;49.742;6.114;2022-07-23T15:13:04;33.20;67.60
12761;DHT22;6444;49.742;6.114;2022-07-23T15:15:31;33.50;66.30
12761;DHT22;6444;49.742;6.114;2022-07-23T15:17:57;33.60;66.90
12761;DHT22;6444;49.742;6.114;2022-07-23T15:20:25;33.60;68.40
12761;DHT22;6444;49.742;6.114;2022-07-23T15:22:51;33.60;68.40
12761;DHT22;6444;49.742;6.114;2022-07-23T15:25:18;33.80;66.40
12761;DHT22;6444;49.742;6.114;2022-07-23T15:27:45;33.30;67.30
12761;DHT22;6444;49.742;6.114;2022-07-23T15:30:11;33.10;68.60
12761;DHT22;6444;49.742;6.114;2022-07-23T15:32:38;33.50;67.40
12761;DHT22;6444;49.742;6.114;2022-07-23T15:35:05;34.10;66.70
12761;DHT22;6444;49.742;6.114;2022-07-23T15:37:31;34.40;66.60
12761;DHT22;6444;49.742;6.114;2022-07-23T15:39:58;34.40;65.40
12761;DHT22;6444;49.742;6.114;2022-07-23T15:42:25;34.20;64.30
12761;DHT22;6444;49.742;6.114;2022-07-23T15:44:51;34.30;64.20
12761;DHT22;6444;49.742;6.114;2022-07-23T15:47:18;34.30;64.30
12761;DHT22;6444;49.742;6.114;2022-07-23T15:49:45;34.30;63.50
12761;DHT22;6444;49.742;6.114;2022-07-23T15:52:12;34.50;63.80
12761;DHT22;6444;49.742;6.114;2022-07-23T15:54:39;34.40;63.70
12761;DHT22;6444;49.742;6.114;2022-07-23T15:57:05;33.60;65.60
12761;DHT22;6444;49.742;6.114;2022-07-23T15:59:32;33.60;65.30
12761;DHT22;6444;49.742;6.114;2022-07-23T16:01:59;32.90;66.50
12761;DHT22;6444;49.742;6.114;2022-07-23T16:04:26;32.80;66.40
12761;DHT22;6444;49.742;6.114;2022-07-23T16:06:52;32.10;68.50
12761;DHT22;6444;49.742;6.114;2022-07-23T16:09:19;32.20;67.50
12761;DHT22;6444;49.742;6.114;2022-07-23T16:11:46;32.20;67.00
12761;DHT22;6444;49.742;6.114;2022-07-23T16:14:13;31.50;68.70
12761;DHT22;6444;49.742;6.114;2022-07-23T16:16:40;31.50;68.70